CPA653 VHHH-VTBS
Flight info
| Callsign | CPA653 |
|---|---|
| Flight time | 2h 17m |
| Altitude | 38000 |
| Route | N0481F380 PECAN V10 SIKOU/K0900S1100 A202 AGPOR/K0889S1160 A202 ASSAD/K0889F380 A202 VILAO/N0480F380 A202 RAMEI W42 PAKRI Y13 RUKSA EASTE1C |
| Aircraft | A333/H-SDE3GHIJ2J3J5M1RVWXYZ/LB2D1 |
Departure
| Time | 2026-05-05 02:14 |
|---|---|
| Airport | Hong Kong International Airport (VHHH) |
Arrival
| Time | 2026-05-05 04:32 |
|---|---|
| Airport | Suvarnabhumi Airport (VTBS) |
| Time | Latitude | Longitude | Altitude | Speed | Heading |
|---|---|---|---|---|---|
| 2026-05-05 01:52 | 22.31506 | 113.92213 | 38 ft | 0 kts | 126° |
| 2026-05-05 02:04 | 22.31509 | 113.92209 | 38 ft | 3 kts | 126° |
| 2026-05-05 02:04 | 22.31525 | 113.92187 | 36 ft | 4 kts | 133° |
| 2026-05-05 02:04 | 22.31545 | 113.92167 | 37 ft | 4 kts | 147° |
| 2026-05-05 02:05 | 22.31568 | 113.92157 | 37 ft | 4 kts | 189° |
| 2026-05-05 02:05 | 22.31580 | 113.92163 | 35 ft | 1 kts | 251° |
| 2026-05-05 02:05 | 22.31581 | 113.92167 | 35 ft | 0 kts | 251° |
| 2026-05-05 02:07 | 22.31570 | 113.92133 | 39 ft | 11 kts | 251° |
| 2026-05-05 02:07 | 22.31527 | 113.92069 | 39 ft | 11 kts | 204° |
| 2026-05-05 02:07 | 22.31452 | 113.92082 | 39 ft | 12 kts | 160° |
| 2026-05-05 02:08 | 22.31349 | 113.92122 | 39 ft | 17 kts | 160° |
| 2026-05-05 02:08 | 22.31235 | 113.92164 | 39 ft | 17 kts | 160° |
| 2026-05-05 02:08 | 22.31120 | 113.92207 | 39 ft | 18 kts | 163° |
| 2026-05-05 02:08 | 22.31006 | 113.92251 | 39 ft | 18 kts | 160° |
| 2026-05-05 02:09 | 22.30890 | 113.92296 | 39 ft | 18 kts | 162° |
| 2026-05-05 02:09 | 22.30772 | 113.92339 | 39 ft | 18 kts | 161° |
| 2026-05-05 02:09 | 22.30654 | 113.92373 | 39 ft | 15 kts | 195° |
| 2026-05-05 02:09 | 22.30607 | 113.92278 | 39 ft | 15 kts | 250° |
| 2026-05-05 02:10 | 22.30567 | 113.92160 | 39 ft | 23 kts | 251° |
| 2026-05-05 02:10 | 22.30514 | 113.91990 | 39 ft | 24 kts | 251° |
| 2026-05-05 02:10 | 22.30458 | 113.91817 | 39 ft | 25 kts | 250° |
| 2026-05-05 02:10 | 22.30400 | 113.91642 | 39 ft | 25 kts | 252° |
| 2026-05-05 02:11 | 22.30344 | 113.91466 | 39 ft | 25 kts | 251° |
| 2026-05-05 02:11 | 22.30288 | 113.91292 | 39 ft | 25 kts | 251° |
| 2026-05-05 02:11 | 22.30231 | 113.91114 | 39 ft | 25 kts | 250° |
| 2026-05-05 02:11 | 22.30171 | 113.90936 | 39 ft | 25 kts | 250° |
| 2026-05-05 02:12 | 22.30115 | 113.90755 | 39 ft | 25 kts | 251° |
| 2026-05-05 02:12 | 22.29997 | 113.90393 | 39 ft | 26 kts | 250° |
| 2026-05-05 02:12 | 22.29939 | 113.90210 | 39 ft | 26 kts | 252° |
| 2026-05-05 02:13 | 22.29881 | 113.90029 | 39 ft | 26 kts | 249° |
| 2026-05-05 02:13 | 22.29820 | 113.89845 | 39 ft | 26 kts | 253° |
| 2026-05-05 02:13 | 22.29727 | 113.89772 | 39 ft | 15 kts | 163° |
| 2026-05-05 02:13 | 22.29649 | 113.89874 | 39 ft | 22 kts | 85° |
| 2026-05-05 02:14 | 22.29740 | 113.90170 | 39 ft | 68 kts | 70° |
| 2026-05-05 02:14 | 22.29961 | 113.90850 | 39 ft | 122 kts | 70° |
| 2026-05-05 02:14 | 22.30301 | 113.91888 | 56 ft | 168 kts | 72° |
| 2026-05-05 02:14 | 22.30700 | 113.93057 | 758 ft | 165 kts | 71° |
| 2026-05-05 02:15 | 22.31099 | 113.94291 | 1355 ft | 177 kts | 74° |
| 2026-05-05 02:15 | 22.31481 | 113.95503 | 2189 ft | 167 kts | 75° |
| 2026-05-05 02:15 | 22.31863 | 113.96719 | 2663 ft | 175 kts | 74° |
| 2026-05-05 02:15 | 22.32265 | 113.97995 | 3117 ft | 184 kts | 73° |
| 2026-05-05 02:16 | 22.32706 | 113.99391 | 3463 ft | 209 kts | 73° |
| 2026-05-05 02:16 | 22.33197 | 114.00934 | 3916 ft | 228 kts | 71° |
| 2026-05-05 02:16 | 22.33667 | 114.02595 | 4601 ft | 232 kts | 78° |
| 2026-05-05 02:16 | 22.33754 | 114.04347 | 5182 ft | 236 kts | 98° |
| 2026-05-05 02:17 | 22.33251 | 114.06037 | 5744 ft | 238 kts | 121° |
| 2026-05-05 02:17 | 22.32194 | 114.07415 | 6346 ft | 238 kts | 142° |
| 2026-05-05 02:17 | 22.30767 | 114.08353 | 6702 ft | 249 kts | 161° |
| 2026-05-05 02:17 | 22.29066 | 114.08764 | 7142 ft | 253 kts | 178° |
| 2026-05-05 02:18 | 22.27280 | 114.08798 | 7577 ft | 260 kts | 183° |
| 2026-05-05 02:18 | 22.25461 | 114.08755 | 8045 ft | 266 kts | 183° |
| 2026-05-05 02:18 | 22.23593 | 114.08712 | 8619 ft | 268 kts | 183° |
| 2026-05-05 02:18 | 22.21751 | 114.08676 | 9262 ft | 267 kts | 184° |
| 2026-05-05 02:19 | 22.19846 | 114.08646 | 9706 ft | 281 kts | 183° |
| 2026-05-05 02:19 | 22.17863 | 114.08646 | 10308 ft | 289 kts | 182° |
| 2026-05-05 02:19 | 22.15796 | 114.08659 | 10689 ft | 306 kts | 182° |
| 2026-05-05 02:19 | 22.13608 | 114.08662 | 11098 ft | 322 kts | 182° |
| 2026-05-05 02:20 | 22.11298 | 114.08666 | 11371 ft | 339 kts | 181° |
| 2026-05-05 02:20 | 22.08870 | 114.08671 | 11518 ft | 358 kts | 182° |
| 2026-05-05 02:20 | 22.06372 | 114.08676 | 11909 ft | 368 kts | 182° |
| 2026-05-05 02:20 | 22.03804 | 114.08721 | 12520 ft | 370 kts | 182° |
| 2026-05-05 02:21 | 22.02069 | 114.08724 | 12688 ft | 379 kts | 182° |
| 2026-05-05 02:21 | 21.99405 | 114.08722 | 13062 ft | 386 kts | 183° |
| 2026-05-05 02:21 | 21.96702 | 114.08719 | 13667 ft | 387 kts | 182° |
| 2026-05-05 02:21 | 21.93102 | 114.08732 | 14247 ft | 393 kts | 182° |
| 2026-05-05 02:22 | 21.91278 | 114.08740 | 14525 ft | 395 kts | 182° |
| 2026-05-05 02:22 | 21.88510 | 114.08752 | 15082 ft | 395 kts | 183° |
| 2026-05-05 02:22 | 21.85740 | 114.08763 | 15536 ft | 398 kts | 183° |
| 2026-05-05 02:22 | 21.82996 | 114.08773 | 16010 ft | 400 kts | 183° |
| 2026-05-05 02:23 | 21.80191 | 114.08784 | 16509 ft | 402 kts | 184° |
| 2026-05-05 02:23 | 21.77374 | 114.08795 | 16981 ft | 405 kts | 184° |
| 2026-05-05 02:23 | 21.74578 | 114.08805 | 17421 ft | 407 kts | 184° |
| 2026-05-05 02:23 | 21.71726 | 114.08815 | 17863 ft | 410 kts | 184° |
| 2026-05-05 02:24 | 21.68862 | 114.08826 | 18306 ft | 413 kts | 184° |
| 2026-05-05 02:24 | 21.65980 | 114.08820 | 18669 ft | 414 kts | 186° |
| 2026-05-05 02:24 | 21.63125 | 114.08455 | 19001 ft | 413 kts | 195° |
| 2026-05-05 02:24 | 21.60338 | 114.07786 | 19359 ft | 414 kts | 197° |
| 2026-05-05 02:25 | 21.57517 | 114.07048 | 19683 ft | 417 kts | 198° |
| 2026-05-05 02:25 | 21.54719 | 114.06312 | 20009 ft | 420 kts | 198° |
| 2026-05-05 02:25 | 21.51867 | 114.05565 | 20357 ft | 422 kts | 198° |
| 2026-05-05 02:25 | 21.49005 | 114.04819 | 20706 ft | 424 kts | 198° |
| 2026-05-05 02:26 | 21.46130 | 114.04042 | 21047 ft | 425 kts | 200° |
| 2026-05-05 02:26 | 21.43395 | 114.02940 | 21370 ft | 422 kts | 210° |
| 2026-05-05 02:26 | 21.40827 | 114.01432 | 21707 ft | 421 kts | 214° |
| 2026-05-05 02:26 | 21.38338 | 113.99762 | 22051 ft | 422 kts | 217° |
| 2026-05-05 02:27 | 21.35880 | 113.98007 | 22392 ft | 424 kts | 218° |
| 2026-05-05 02:27 | 21.33464 | 113.96243 | 22728 ft | 425 kts | 218° |
| 2026-05-05 02:27 | 21.31012 | 113.94452 | 23059 ft | 428 kts | 218° |
| 2026-05-05 02:27 | 21.28533 | 113.92657 | 23314 ft | 431 kts | 218° |
| 2026-05-05 02:28 | 21.26022 | 113.90857 | 23590 ft | 435 kts | 217° |
| 2026-05-05 02:28 | 21.23495 | 113.89060 | 23877 ft | 436 kts | 217° |
| 2026-05-05 02:28 | 21.20945 | 113.87258 | 24172 ft | 438 kts | 217° |
| 2026-05-05 02:28 | 21.18426 | 113.85483 | 24461 ft | 440 kts | 217° |
| 2026-05-05 02:29 | 21.15864 | 113.83679 | 24764 ft | 441 kts | 217° |
| 2026-05-05 02:29 | 21.13319 | 113.81806 | 25065 ft | 441 kts | 221° |
| 2026-05-05 02:29 | 21.11031 | 113.79680 | 25341 ft | 439 kts | 228° |
| 2026-05-05 02:29 | 21.09039 | 113.77194 | 25629 ft | 437 kts | 237° |
| 2026-05-05 02:30 | 21.07463 | 113.74409 | 25918 ft | 436 kts | 246° |
| 2026-05-05 02:30 | 21.06265 | 113.71430 | 26236 ft | 435 kts | 250° |
| 2026-05-05 02:30 | 21.05206 | 113.68384 | 26531 ft | 436 kts | 252° |
| 2026-05-05 02:30 | 21.04226 | 113.65339 | 26788 ft | 438 kts | 252° |
| 2026-05-05 02:31 | 21.03253 | 113.62224 | 26902 ft | 444 kts | 252° |
| 2026-05-05 02:31 | 21.02270 | 113.59070 | 27137 ft | 447 kts | 252° |
| 2026-05-05 02:31 | 21.01276 | 113.55912 | 27437 ft | 448 kts | 252° |
| 2026-05-05 02:31 | 21.00280 | 113.52787 | 27719 ft | 449 kts | 252° |
| 2026-05-05 02:32 | 20.99258 | 113.49615 | 27987 ft | 451 kts | 252° |
| 2026-05-05 02:32 | 20.98228 | 113.46440 | 28254 ft | 452 kts | 252° |
| 2026-05-05 02:32 | 20.97187 | 113.43241 | 28548 ft | 454 kts | 252° |
| 2026-05-05 02:32 | 20.96142 | 113.40036 | 28842 ft | 456 kts | 252° |
| 2026-05-05 02:33 | 20.95093 | 113.36823 | 29069 ft | 457 kts | 252° |
| 2026-05-05 02:33 | 20.94050 | 113.33625 | 29341 ft | 458 kts | 252° |
| 2026-05-05 02:33 | 20.92993 | 113.30388 | 29708 ft | 457 kts | 252° |
| 2026-05-05 02:33 | 20.91956 | 113.27215 | 30085 ft | 456 kts | 252° |
| 2026-05-05 02:34 | 20.90911 | 113.24017 | 30390 ft | 454 kts | 252° |
| 2026-05-05 02:34 | 20.89864 | 113.20817 | 30689 ft | 454 kts | 252° |
| 2026-05-05 02:34 | 20.88819 | 113.17623 | 30991 ft | 453 kts | 252° |
| 2026-05-05 02:34 | 20.87791 | 113.14481 | 31298 ft | 452 kts | 252° |
| 2026-05-05 02:35 | 20.86752 | 113.11310 | 31602 ft | 451 kts | 252° |
| 2026-05-05 02:35 | 20.85712 | 113.08141 | 31918 ft | 450 kts | 252° |
| 2026-05-05 02:35 | 20.84677 | 113.04987 | 32215 ft | 449 kts | 252° |
| 2026-05-05 02:35 | 20.83641 | 113.01829 | 32513 ft | 448 kts | 252° |
| 2026-05-05 02:36 | 20.82606 | 112.98681 | 32728 ft | 449 kts | 252° |
| 2026-05-05 02:36 | 20.81577 | 112.95547 | 32833 ft | 453 kts | 252° |
| 2026-05-05 02:36 | 20.80529 | 112.92362 | 33103 ft | 453 kts | 252° |
| 2026-05-05 02:36 | 20.79485 | 112.89193 | 33445 ft | 451 kts | 252° |
| 2026-05-05 02:37 | 20.78440 | 112.86022 | 33762 ft | 450 kts | 252° |
| 2026-05-05 02:37 | 20.77412 | 112.82905 | 34057 ft | 449 kts | 252° |
| 2026-05-05 02:37 | 20.76370 | 112.79746 | 34316 ft | 448 kts | 252° |
| 2026-05-05 02:37 | 20.75329 | 112.76595 | 34516 ft | 448 kts | 252° |
| 2026-05-05 02:38 | 20.74304 | 112.73491 | 34736 ft | 449 kts | 252° |
| 2026-05-05 02:38 | 20.73264 | 112.70343 | 35034 ft | 449 kts | 252° |
| 2026-05-05 02:38 | 20.72225 | 112.67203 | 35294 ft | 448 kts | 252° |
| 2026-05-05 02:38 | 20.71185 | 112.64062 | 35533 ft | 447 kts | 252° |
| 2026-05-05 02:39 | 20.70147 | 112.60929 | 35745 ft | 447 kts | 252° |
| 2026-05-05 02:39 | 20.69111 | 112.57805 | 35975 ft | 446 kts | 252° |
| 2026-05-05 02:39 | 20.68073 | 112.54677 | 36185 ft | 446 kts | 252° |
| 2026-05-05 02:39 | 20.67037 | 112.51554 | 36391 ft | 446 kts | 252° |
| 2026-05-05 02:40 | 20.66009 | 112.48459 | 36597 ft | 446 kts | 252° |
| 2026-05-05 02:40 | 20.64972 | 112.45340 | 36857 ft | 445 kts | 252° |
| 2026-05-05 02:40 | 20.63934 | 112.42225 | 37136 ft | 444 kts | 253° |
| 2026-05-05 02:40 | 20.62898 | 112.39115 | 37301 ft | 445 kts | 253° |
| 2026-05-05 02:41 | 20.61872 | 112.36033 | 37482 ft | 445 kts | 253° |
| 2026-05-05 02:41 | 20.60836 | 112.32922 | 37666 ft | 444 kts | 253° |
| 2026-05-05 02:41 | 20.59795 | 112.29799 | 37844 ft | 444 kts | 253° |
| 2026-05-05 02:41 | 20.58755 | 112.26682 | 37996 ft | 445 kts | 253° |
| 2026-05-05 02:42 | 20.57744 | 112.23591 | 38011 ft | 447 kts | 255° |
| 2026-05-05 02:42 | 20.56651 | 112.17035 | 38006 ft | 451 kts | 270° |
| 2026-05-05 02:43 | 20.57426 | 112.10442 | 38005 ft | 451 kts | 287° |
| 2026-05-05 02:43 | 20.59827 | 112.04235 | 38009 ft | 452 kts | 294° |
| 2026-05-05 02:44 | 20.62589 | 111.98183 | 38008 ft | 453 kts | 295° |
| 2026-05-05 02:44 | 20.65364 | 111.92185 | 38009 ft | 453 kts | 295° |
| 2026-05-05 02:45 | 20.68124 | 111.86127 | 38011 ft | 453 kts | 295° |
| 2026-05-05 02:45 | 20.70843 | 111.80097 | 38010 ft | 453 kts | 295° |
| 2026-05-05 02:46 | 20.73576 | 111.74014 | 38005 ft | 453 kts | 295° |
| 2026-05-05 02:46 | 20.76307 | 111.67929 | 38008 ft | 453 kts | 295° |
| 2026-05-05 02:47 | 20.79019 | 111.61886 | 38004 ft | 453 kts | 295° |
| 2026-05-05 02:47 | 20.81564 | 111.55714 | 38006 ft | 452 kts | 287° |
| 2026-05-05 02:48 | 20.82667 | 111.49157 | 38006 ft | 452 kts | 272° |
| 2026-05-05 02:48 | 20.81815 | 111.42519 | 38009 ft | 456 kts | 256° |
| 2026-05-05 02:49 | 20.79793 | 111.36053 | 38006 ft | 458 kts | 252° |
| 2026-05-05 02:49 | 20.77576 | 111.29641 | 38006 ft | 459 kts | 252° |
| 2026-05-05 02:50 | 20.75375 | 111.23259 | 38009 ft | 459 kts | 252° |
| 2026-05-05 02:50 | 20.73207 | 111.16870 | 38010 ft | 459 kts | 252° |
| 2026-05-05 02:51 | 20.71040 | 111.10441 | 38010 ft | 459 kts | 253° |
| 2026-05-05 02:51 | 20.68873 | 111.04013 | 38010 ft | 459 kts | 253° |
| 2026-05-05 02:52 | 20.66717 | 110.97630 | 38009 ft | 460 kts | 253° |
| 2026-05-05 02:52 | 20.64541 | 110.91201 | 38011 ft | 460 kts | 253° |
| 2026-05-05 02:53 | 20.62388 | 110.84803 | 38012 ft | 459 kts | 253° |
| 2026-05-05 02:53 | 20.60226 | 110.78361 | 38012 ft | 460 kts | 253° |
| 2026-05-05 02:54 | 20.58073 | 110.71950 | 38012 ft | 460 kts | 253° |
| 2026-05-05 02:54 | 20.55904 | 110.65509 | 38012 ft | 460 kts | 253° |
| 2026-05-05 02:55 | 20.53743 | 110.59100 | 38013 ft | 460 kts | 253° |
| 2026-05-05 02:55 | 20.51538 | 110.52674 | 38011 ft | 462 kts | 250° |
| 2026-05-05 02:56 | 20.48300 | 110.46711 | 38008 ft | 467 kts | 237° |
| 2026-05-05 02:56 | 20.44297 | 110.41234 | 38010 ft | 470 kts | 234° |
| 2026-05-05 02:57 | 20.40155 | 110.35866 | 38010 ft | 471 kts | 234° |
| 2026-05-05 02:57 | 20.35969 | 110.30457 | 38012 ft | 471 kts | 234° |
| 2026-05-05 02:58 | 20.31836 | 110.25081 | 38013 ft | 471 kts | 234° |
| 2026-05-05 02:58 | 20.27710 | 110.19647 | 38007 ft | 471 kts | 235° |
| 2026-05-05 02:59 | 20.23624 | 110.14184 | 38004 ft | 471 kts | 235° |
| 2026-05-05 02:59 | 20.22271 | 110.12372 | 37999 ft | 471 kts | 235° |
| 2026-05-05 03:00 | 20.19637 | 110.08849 | 38016 ft | 472 kts | 235° |
| 2026-05-05 03:01 | 20.15529 | 110.03368 | 38009 ft | 472 kts | 235° |
| 2026-05-05 03:01 | 20.11437 | 109.97922 | 38012 ft | 473 kts | 235° |
| 2026-05-05 03:02 | 20.07320 | 109.92449 | 37997 ft | 473 kts | 235° |
| 2026-05-05 03:02 | 20.03208 | 109.86986 | 38002 ft | 473 kts | 235° |
| 2026-05-05 03:03 | 19.99111 | 109.81549 | 38002 ft | 473 kts | 235° |
| 2026-05-05 03:03 | 19.94986 | 109.76078 | 37994 ft | 473 kts | 235° |
| 2026-05-05 03:04 | 19.90886 | 109.70647 | 38003 ft | 473 kts | 235° |
| 2026-05-05 03:04 | 19.86756 | 109.65180 | 38001 ft | 473 kts | 235° |
| 2026-05-05 03:05 | 19.82650 | 109.59751 | 37999 ft | 473 kts | 235° |
| 2026-05-05 03:05 | 19.78513 | 109.54286 | 37991 ft | 473 kts | 235° |
| 2026-05-05 03:06 | 19.74401 | 109.48858 | 37994 ft | 473 kts | 235° |
| 2026-05-05 03:06 | 19.70259 | 109.43395 | 37988 ft | 473 kts | 235° |
| 2026-05-05 03:07 | 19.66148 | 109.37979 | 37996 ft | 473 kts | 235° |
| 2026-05-05 03:07 | 19.62008 | 109.32530 | 37994 ft | 473 kts | 235° |
| 2026-05-05 03:08 | 19.57892 | 109.27117 | 38000 ft | 473 kts | 235° |
| 2026-05-05 03:08 | 19.53747 | 109.21670 | 37998 ft | 473 kts | 235° |
| 2026-05-05 03:09 | 19.49619 | 109.16272 | 37992 ft | 473 kts | 234° |
| 2026-05-05 03:09 | 19.45447 | 109.10859 | 37996 ft | 473 kts | 234° |
| 2026-05-05 03:10 | 19.41267 | 109.05448 | 37990 ft | 473 kts | 234° |
| 2026-05-05 03:10 | 19.37797 | 109.00956 | 37994 ft | 473 kts | 234° |
| 2026-05-05 03:11 | 19.33626 | 108.95559 | 37993 ft | 473 kts | 234° |
| 2026-05-05 03:11 | 19.29480 | 108.90197 | 37993 ft | 473 kts | 234° |
| 2026-05-05 03:12 | 19.25310 | 108.84808 | 37993 ft | 473 kts | 234° |
| 2026-05-05 03:12 | 19.21136 | 108.79418 | 37991 ft | 473 kts | 234° |
| 2026-05-05 03:13 | 19.16982 | 108.74058 | 37990 ft | 473 kts | 234° |
| 2026-05-05 03:13 | 19.12807 | 108.68677 | 37987 ft | 472 kts | 234° |
| 2026-05-05 03:14 | 19.08659 | 108.63335 | 37991 ft | 472 kts | 234° |
| 2026-05-05 03:14 | 19.04482 | 108.57960 | 37991 ft | 472 kts | 234° |
| 2026-05-05 03:15 | 19.00333 | 108.52625 | 37990 ft | 472 kts | 234° |
| 2026-05-05 03:15 | 18.96158 | 108.47263 | 37991 ft | 472 kts | 234° |
| 2026-05-05 03:16 | 18.91981 | 108.41902 | 37986 ft | 472 kts | 234° |
| 2026-05-05 03:16 | 18.87798 | 108.36538 | 37990 ft | 472 kts | 234° |
| 2026-05-05 03:17 | 18.83638 | 108.31208 | 37987 ft | 472 kts | 234° |
| 2026-05-05 03:17 | 18.79456 | 108.25854 | 37987 ft | 472 kts | 234° |
| 2026-05-05 03:18 | 18.75288 | 108.20524 | 37990 ft | 472 kts | 234° |
| 2026-05-05 03:18 | 18.71097 | 108.15168 | 37991 ft | 472 kts | 234° |
| 2026-05-05 03:19 | 18.64837 | 108.07177 | 37989 ft | 472 kts | 234° |
| 2026-05-05 03:19 | 18.60644 | 108.01830 | 37990 ft | 472 kts | 234° |
| 2026-05-05 03:20 | 18.56444 | 107.96480 | 37982 ft | 472 kts | 234° |
| 2026-05-05 03:20 | 18.52272 | 107.91169 | 37986 ft | 472 kts | 234° |
| 2026-05-05 03:21 | 18.48098 | 107.85860 | 37990 ft | 472 kts | 234° |
| 2026-05-05 03:21 | 18.43893 | 107.80516 | 37987 ft | 472 kts | 234° |
| 2026-05-05 03:22 | 18.39717 | 107.75213 | 37990 ft | 472 kts | 234° |
| 2026-05-05 03:22 | 18.35516 | 107.69880 | 37989 ft | 472 kts | 235° |
| 2026-05-05 03:23 | 18.31803 | 107.64258 | 37988 ft | 469 kts | 240° |
| 2026-05-05 03:23 | 18.28273 | 107.58475 | 37972 ft | 468 kts | 241° |
| 2026-05-05 03:24 | 18.24804 | 107.52706 | 37994 ft | 468 kts | 241° |
| 2026-05-05 03:24 | 18.21316 | 107.46919 | 37995 ft | 468 kts | 241° |
| 2026-05-05 03:25 | 18.17836 | 107.41165 | 37997 ft | 468 kts | 241° |
| 2026-05-05 03:25 | 18.14329 | 107.35381 | 37979 ft | 468 kts | 241° |
| 2026-05-05 03:26 | 18.10829 | 107.29614 | 37995 ft | 468 kts | 241° |
| 2026-05-05 03:26 | 18.07347 | 107.23882 | 37997 ft | 468 kts | 241° |
| 2026-05-05 03:27 | 18.03831 | 107.18104 | 37996 ft | 468 kts | 240° |
| 2026-05-05 03:27 | 18.00331 | 107.12362 | 37990 ft | 468 kts | 240° |
| 2026-05-05 03:28 | 17.96826 | 107.06616 | 37997 ft | 468 kts | 240° |
| 2026-05-05 03:28 | 17.93327 | 107.00884 | 37996 ft | 468 kts | 240° |
| 2026-05-05 03:29 | 17.89802 | 106.95116 | 37999 ft | 468 kts | 240° |
| 2026-05-05 03:29 | 17.86303 | 106.89377 | 38000 ft | 468 kts | 240° |
| 2026-05-05 03:30 | 17.82797 | 106.83606 | 37999 ft | 468 kts | 240° |
| 2026-05-05 03:30 | 17.79288 | 106.77831 | 37999 ft | 468 kts | 240° |
| 2026-05-05 03:31 | 17.75799 | 106.72098 | 38004 ft | 468 kts | 240° |
| 2026-05-05 03:31 | 17.72287 | 106.66334 | 38004 ft | 468 kts | 240° |
| 2026-05-05 03:32 | 17.68783 | 106.60587 | 38004 ft | 469 kts | 240° |
| 2026-05-05 03:32 | 17.65251 | 106.54815 | 38005 ft | 469 kts | 240° |
| 2026-05-05 03:33 | 17.61737 | 106.49085 | 38006 ft | 469 kts | 240° |
| 2026-05-05 03:33 | 17.58206 | 106.43332 | 38010 ft | 469 kts | 240° |
| 2026-05-05 03:34 | 17.54667 | 106.37572 | 38012 ft | 469 kts | 240° |
| 2026-05-05 03:34 | 17.51155 | 106.31857 | 38014 ft | 469 kts | 239° |
| 2026-05-05 03:35 | 17.47617 | 106.26106 | 38014 ft | 469 kts | 239° |
| 2026-05-05 03:35 | 17.44094 | 106.20387 | 38014 ft | 469 kts | 239° |
| 2026-05-05 03:36 | 17.40556 | 106.14647 | 38003 ft | 469 kts | 239° |
| 2026-05-05 03:36 | 17.37031 | 106.08931 | 38012 ft | 468 kts | 239° |
| 2026-05-05 03:37 | 17.33521 | 106.03167 | 38001 ft | 468 kts | 240° |
| 2026-05-05 03:37 | 17.30062 | 105.97442 | 38004 ft | 468 kts | 239° |
| 2026-05-05 03:38 | 17.26572 | 105.91672 | 37993 ft | 468 kts | 239° |
| 2026-05-05 03:38 | 17.23081 | 105.85913 | 37986 ft | 468 kts | 239° |
| 2026-05-05 03:39 | 17.19608 | 105.80193 | 37979 ft | 468 kts | 239° |
| 2026-05-05 03:39 | 17.16106 | 105.74429 | 37974 ft | 468 kts | 239° |
| 2026-05-05 03:40 | 17.12629 | 105.68710 | 37973 ft | 468 kts | 239° |
| 2026-05-05 03:40 | 17.09135 | 105.62969 | 37970 ft | 467 kts | 239° |
| 2026-05-05 03:41 | 17.05650 | 105.57247 | 37968 ft | 465 kts | 239° |
| 2026-05-05 03:41 | 17.02180 | 105.51556 | 37969 ft | 465 kts | 239° |
| 2026-05-05 03:42 | 16.98688 | 105.45832 | 37963 ft | 465 kts | 239° |
| 2026-05-05 03:42 | 16.95227 | 105.40164 | 37964 ft | 465 kts | 239° |
| 2026-05-05 03:43 | 16.91739 | 105.34456 | 37963 ft | 465 kts | 239° |
| 2026-05-05 03:43 | 16.88255 | 105.28760 | 37963 ft | 465 kts | 239° |
| 2026-05-05 03:44 | 16.84782 | 105.23087 | 37964 ft | 466 kts | 239° |
| 2026-05-05 03:44 | 16.81272 | 105.17366 | 37956 ft | 467 kts | 238° |
| 2026-05-05 03:45 | 16.77753 | 105.11639 | 37960 ft | 468 kts | 238° |
| 2026-05-05 03:45 | 16.74256 | 105.05950 | 37963 ft | 468 kts | 238° |
| 2026-05-05 03:46 | 16.70731 | 105.00222 | 37961 ft | 468 kts | 238° |
| 2026-05-05 03:46 | 16.67207 | 104.94497 | 37995 ft | 468 kts | 238° |
| 2026-05-05 03:47 | 16.63685 | 104.88781 | 38008 ft | 470 kts | 238° |
| 2026-05-05 03:47 | 16.60158 | 104.83063 | 38019 ft | 471 kts | 238° |
| 2026-05-05 03:48 | 16.56550 | 104.77356 | 38022 ft | 471 kts | 234° |
| 2026-05-05 03:48 | 16.52344 | 104.72130 | 38020 ft | 472 kts | 230° |
| 2026-05-05 03:49 | 16.47933 | 104.66970 | 38024 ft | 477 kts | 230° |
| 2026-05-05 03:49 | 16.43499 | 104.61843 | 38009 ft | 479 kts | 230° |
| 2026-05-05 03:50 | 16.39049 | 104.56692 | 37983 ft | 479 kts | 230° |
| 2026-05-05 03:50 | 16.34590 | 104.51516 | 37973 ft | 479 kts | 230° |
| 2026-05-05 03:51 | 16.30167 | 104.46380 | 37965 ft | 479 kts | 230° |
| 2026-05-05 03:51 | 16.25708 | 104.41215 | 37961 ft | 479 kts | 230° |
| 2026-05-05 03:52 | 16.21219 | 104.36072 | 37959 ft | 479 kts | 230° |
| 2026-05-05 03:52 | 16.16757 | 104.30981 | 37963 ft | 477 kts | 229° |
| 2026-05-05 03:53 | 16.12281 | 104.25874 | 37959 ft | 476 kts | 229° |
| 2026-05-05 03:53 | 16.07834 | 104.20799 | 37959 ft | 476 kts | 229° |
| 2026-05-05 03:54 | 16.03371 | 104.15668 | 37958 ft | 477 kts | 230° |
| 2026-05-05 03:54 | 15.98973 | 104.10532 | 37955 ft | 478 kts | 230° |
| 2026-05-05 03:55 | 15.94553 | 104.05364 | 37959 ft | 478 kts | 230° |
| 2026-05-05 03:55 | 15.90148 | 104.00225 | 37962 ft | 478 kts | 230° |
| 2026-05-05 03:56 | 15.85719 | 103.95068 | 37959 ft | 476 kts | 230° |
| 2026-05-05 03:56 | 15.81328 | 103.89959 | 37960 ft | 474 kts | 230° |
| 2026-05-05 03:57 | 15.76925 | 103.84841 | 37961 ft | 474 kts | 230° |
| 2026-05-05 03:57 | 15.72550 | 103.79760 | 37959 ft | 474 kts | 230° |
| 2026-05-05 03:58 | 15.68167 | 103.74673 | 37958 ft | 474 kts | 230° |
| 2026-05-05 03:58 | 15.63758 | 103.69558 | 37959 ft | 474 kts | 229° |
| 2026-05-05 03:59 | 15.59352 | 103.64452 | 37957 ft | 474 kts | 229° |
| 2026-05-05 03:59 | 15.54965 | 103.59370 | 37959 ft | 475 kts | 229° |
| 2026-05-05 04:00 | 15.51294 | 103.55121 | 37963 ft | 475 kts | 229° |
| 2026-05-05 04:00 | 15.46159 | 103.49181 | 37972 ft | 475 kts | 229° |
| 2026-05-05 04:01 | 15.42474 | 103.44922 | 37973 ft | 476 kts | 229° |
| 2026-05-05 04:01 | 15.37326 | 103.38975 | 37982 ft | 476 kts | 229° |
| 2026-05-05 04:02 | 15.33629 | 103.34709 | 37989 ft | 476 kts | 229° |
| 2026-05-05 04:02 | 15.29185 | 103.29584 | 37991 ft | 476 kts | 229° |
| 2026-05-05 04:03 | 15.24773 | 103.24498 | 37995 ft | 476 kts | 229° |
| 2026-05-05 04:03 | 15.20330 | 103.19380 | 37995 ft | 477 kts | 229° |
| 2026-05-05 04:04 | 15.15919 | 103.14302 | 37989 ft | 476 kts | 229° |
| 2026-05-05 04:04 | 15.11466 | 103.09180 | 37968 ft | 477 kts | 229° |
| 2026-05-05 04:05 | 15.07048 | 103.04104 | 37971 ft | 477 kts | 228° |
| 2026-05-05 04:05 | 15.01972 | 102.99688 | 37973 ft | 478 kts | 214° |
| 2026-05-05 04:06 | 14.96316 | 102.96033 | 37968 ft | 479 kts | 212° |
| 2026-05-05 04:06 | 14.90720 | 102.92362 | 37969 ft | 478 kts | 220° |
| 2026-05-05 04:07 | 14.86332 | 102.87266 | 37967 ft | 474 kts | 240° |
| 2026-05-05 04:07 | 14.83843 | 102.80961 | 37969 ft | 474 kts | 252° |
| 2026-05-05 04:08 | 14.81875 | 102.74485 | 37973 ft | 475 kts | 253° |
| 2026-05-05 04:08 | 14.79887 | 102.67960 | 37971 ft | 475 kts | 253° |
| 2026-05-05 04:09 | 14.77887 | 102.61436 | 37973 ft | 475 kts | 253° |
| 2026-05-05 04:09 | 14.75897 | 102.54961 | 37971 ft | 475 kts | 253° |
| 2026-05-05 04:10 | 14.73887 | 102.48435 | 37971 ft | 475 kts | 253° |
| 2026-05-05 04:10 | 14.72887 | 102.45189 | 37858 ft | 473 kts | 253° |
| 2026-05-05 04:10 | 14.71890 | 102.41957 | 37460 ft | 468 kts | 253° |
| 2026-05-05 04:11 | 14.70903 | 102.38757 | 37006 ft | 465 kts | 253° |
| 2026-05-05 04:11 | 14.69927 | 102.35597 | 36403 ft | 466 kts | 253° |
| 2026-05-05 04:11 | 14.68939 | 102.32399 | 35793 ft | 467 kts | 253° |
| 2026-05-05 04:11 | 14.67948 | 102.29190 | 35146 ft | 469 kts | 253° |
| 2026-05-05 04:12 | 14.66963 | 102.26007 | 34488 ft | 472 kts | 253° |
| 2026-05-05 04:12 | 14.65959 | 102.22760 | 33792 ft | 476 kts | 252° |
| 2026-05-05 04:12 | 14.64947 | 102.19491 | 33021 ft | 478 kts | 252° |
| 2026-05-05 04:12 | 14.63930 | 102.16208 | 32291 ft | 480 kts | 252° |
| 2026-05-05 04:13 | 14.62905 | 102.12900 | 31543 ft | 482 kts | 252° |
| 2026-05-05 04:13 | 14.61879 | 102.09590 | 30791 ft | 485 kts | 252° |
| 2026-05-05 04:13 | 14.60857 | 102.06299 | 29997 ft | 488 kts | 252° |
| 2026-05-05 04:13 | 14.59813 | 102.02934 | 29093 ft | 491 kts | 252° |
| 2026-05-05 04:14 | 14.58769 | 101.99576 | 28512 ft | 487 kts | 252° |
| 2026-05-05 04:14 | 14.57752 | 101.96302 | 27989 ft | 482 kts | 252° |
| 2026-05-05 04:14 | 14.56729 | 101.93017 | 27415 ft | 477 kts | 252° |
| 2026-05-05 04:14 | 14.55569 | 101.89814 | 26876 ft | 473 kts | 248° |
| 2026-05-05 04:15 | 14.54320 | 101.86680 | 26332 ft | 469 kts | 248° |
| 2026-05-05 04:15 | 14.53067 | 101.83580 | 25786 ft | 465 kts | 248° |
| 2026-05-05 04:15 | 14.51843 | 101.80545 | 25246 ft | 462 kts | 248° |
| 2026-05-05 04:15 | 14.50609 | 101.77479 | 24707 ft | 459 kts | 248° |
| 2026-05-05 04:16 | 14.49388 | 101.74439 | 24151 ft | 456 kts | 248° |
| 2026-05-05 04:16 | 14.48189 | 101.71452 | 23597 ft | 453 kts | 248° |
| 2026-05-05 04:16 | 14.46988 | 101.68461 | 22970 ft | 450 kts | 248° |
| 2026-05-05 04:16 | 14.45796 | 101.65491 | 22418 ft | 445 kts | 248° |
| 2026-05-05 04:17 | 14.44616 | 101.62551 | 21874 ft | 440 kts | 248° |
| 2026-05-05 04:17 | 14.43448 | 101.59643 | 21331 ft | 436 kts | 248° |
| 2026-05-05 04:17 | 14.42294 | 101.56767 | 20793 ft | 431 kts | 248° |
| 2026-05-05 04:17 | 14.41147 | 101.53914 | 20247 ft | 427 kts | 248° |
| 2026-05-05 04:18 | 14.40022 | 101.51114 | 19738 ft | 423 kts | 248° |
| 2026-05-05 04:18 | 14.38893 | 101.48306 | 19216 ft | 420 kts | 248° |
| 2026-05-05 04:18 | 14.37785 | 101.45553 | 19013 ft | 408 kts | 248° |
| 2026-05-05 04:18 | 14.36718 | 101.42940 | 18840 ft | 395 kts | 245° |
| 2026-05-05 04:19 | 14.35402 | 101.40449 | 18155 ft | 398 kts | 238° |
| 2026-05-05 04:19 | 14.33862 | 101.38022 | 17060 ft | 410 kts | 236° |
| 2026-05-05 04:19 | 14.32227 | 101.35579 | 16228 ft | 414 kts | 235° |
| 2026-05-05 04:19 | 14.30585 | 101.33163 | 15871 ft | 405 kts | 235° |
| 2026-05-05 04:20 | 14.28981 | 101.30811 | 15521 ft | 397 kts | 235° |
| 2026-05-05 04:20 | 14.27421 | 101.28531 | 15170 ft | 389 kts | 235° |
| 2026-05-05 04:20 | 14.25872 | 101.26268 | 14821 ft | 382 kts | 234° |
| 2026-05-05 04:20 | 14.24350 | 101.24046 | 14482 ft | 375 kts | 234° |
| 2026-05-05 04:21 | 14.22855 | 101.21864 | 14147 ft | 369 kts | 234° |
| 2026-05-05 04:21 | 14.21392 | 101.19730 | 13943 ft | 359 kts | 234° |
| 2026-05-05 04:21 | 14.19988 | 101.17683 | 13794 ft | 348 kts | 234° |
| 2026-05-05 04:21 | 14.18611 | 101.15677 | 13640 ft | 337 kts | 234° |
| 2026-05-05 04:22 | 14.17278 | 101.13734 | 13474 ft | 328 kts | 234° |
| 2026-05-05 04:22 | 14.15972 | 101.11831 | 13200 ft | 322 kts | 234° |
| 2026-05-05 04:22 | 14.14693 | 101.09968 | 12755 ft | 322 kts | 234° |
| 2026-05-05 04:22 | 14.13403 | 101.08090 | 12460 ft | 317 kts | 234° |
| 2026-05-05 04:23 | 14.12129 | 101.06235 | 12090 ft | 316 kts | 234° |
| 2026-05-05 04:23 | 14.10869 | 101.04401 | 11801 ft | 311 kts | 234° |
| 2026-05-05 04:23 | 14.09619 | 101.02582 | 11431 ft | 310 kts | 234° |
| 2026-05-05 04:23 | 14.08376 | 101.00773 | 11098 ft | 308 kts | 234° |
| 2026-05-05 04:24 | 14.07152 | 100.98994 | 10756 ft | 306 kts | 234° |
| 2026-05-05 04:24 | 14.05925 | 100.97209 | 10424 ft | 303 kts | 234° |
| 2026-05-05 04:24 | 14.04714 | 100.95449 | 9870 ft | 299 kts | 234° |
| 2026-05-05 04:25 | 14.02326 | 100.91976 | 8588 ft | 295 kts | 234° |
| 2026-05-05 04:25 | 14.01142 | 100.90255 | 8033 ft | 291 kts | 233° |
| 2026-05-05 04:25 | 14.00014 | 100.88614 | 7734 ft | 278 kts | 233° |
| 2026-05-05 04:25 | 13.98891 | 100.86984 | 7070 ft | 280 kts | 233° |
| 2026-05-05 04:26 | 13.97754 | 100.85334 | 6422 ft | 282 kts | 232° |
| 2026-05-05 04:26 | 13.96617 | 100.83685 | 5785 ft | 282 kts | 233° |
| 2026-05-05 04:26 | 13.95477 | 100.82032 | 5143 ft | 282 kts | 233° |
| 2026-05-05 04:26 | 13.94265 | 100.80526 | 4792 ft | 269 kts | 216° |
| 2026-05-05 04:27 | 13.92644 | 100.79733 | 4582 ft | 249 kts | 194° |
| 2026-05-05 04:27 | 13.90989 | 100.79276 | 4076 ft | 245 kts | 191° |
| 2026-05-05 04:27 | 13.89342 | 100.78870 | 3459 ft | 247 kts | 192° |
| 2026-05-05 04:27 | 13.87697 | 100.78459 | 3081 ft | 237 kts | 192° |
| 2026-05-05 04:28 | 13.86155 | 100.78066 | 2981 ft | 217 kts | 192° |
| 2026-05-05 04:28 | 13.84746 | 100.77703 | 2924 ft | 202 kts | 192° |
| 2026-05-05 04:28 | 13.83393 | 100.77354 | 2702 ft | 199 kts | 193° |
| 2026-05-05 04:28 | 13.82060 | 100.77007 | 2413 ft | 195 kts | 193° |
| 2026-05-05 04:29 | 13.80758 | 100.76666 | 2126 ft | 190 kts | 194° |
| 2026-05-05 04:29 | 13.79503 | 100.76337 | 1895 ft | 181 kts | 194° |
| 2026-05-05 04:29 | 13.78337 | 100.76032 | 1659 ft | 169 kts | 194° |
| 2026-05-05 04:29 | 13.77219 | 100.75739 | 1409 ft | 162 kts | 195° |
| 2026-05-05 04:30 | 13.76140 | 100.75454 | 1188 ft | 157 kts | 195° |
| 2026-05-05 04:30 | 13.75087 | 100.75177 | 1026 ft | 157 kts | 194° |
| 2026-05-05 04:30 | 13.74032 | 100.74899 | 840 ft | 156 kts | 194° |
| 2026-05-05 04:30 | 13.72981 | 100.74623 | 641 ft | 156 kts | 194° |
| 2026-05-05 04:31 | 13.71931 | 100.74346 | 426 ft | 156 kts | 194° |
| 2026-05-05 04:31 | 13.70879 | 100.74072 | 244 ft | 154 kts | 191° |
| 2026-05-05 04:31 | 13.69813 | 100.73796 | 38 ft | 162 kts | 194° |
| 2026-05-05 04:31 | 13.68811 | 100.73532 | 16 ft | 124 kts | 194° |
| 2026-05-05 04:32 | 13.68173 | 100.73361 | 18 ft | 59 kts | 192° |
| 2026-05-05 04:32 | 13.67917 | 100.73367 | 18 ft | 23 kts | 165° |
| 2026-05-05 04:32 | 13.67832 | 100.73432 | 18 ft | 14 kts | 95° |
| 2026-05-05 04:32 | 13.67891 | 100.73479 | 18 ft | 11 kts | 15° |
| 2026-05-05 04:33 | 13.67973 | 100.73499 | 18 ft | 14 kts | 13° |
| 2026-05-05 04:33 | 13.68074 | 100.73525 | 17 ft | 15 kts | 14° |
| 2026-05-05 04:33 | 13.68183 | 100.73553 | 17 ft | 18 kts | 15° |
| 2026-05-05 04:33 | 13.68308 | 100.73588 | 17 ft | 19 kts | 15° |
| 2026-05-05 04:34 | 13.68434 | 100.73621 | 17 ft | 19 kts | 14° |
| 2026-05-05 04:34 | 13.68564 | 100.73654 | 17 ft | 20 kts | 14° |
| 2026-05-05 04:34 | 13.68697 | 100.73689 | 17 ft | 20 kts | 15° |
| 2026-05-05 04:34 | 13.68789 | 100.73756 | 17 ft | 16 kts | 97° |
| 2026-05-05 04:35 | 13.68764 | 100.73867 | 18 ft | 17 kts | 104° |
| 2026-05-05 04:35 | 13.68734 | 100.73986 | 18 ft | 18 kts | 105° |
| 2026-05-05 04:35 | 13.68701 | 100.74112 | 17 ft | 19 kts | 105° |
| 2026-05-05 04:35 | 13.68669 | 100.74245 | 17 ft | 19 kts | 105° |
| 2026-05-05 04:36 | 13.68634 | 100.74382 | 17 ft | 20 kts | 104° |
| 2026-05-05 04:36 | 13.68598 | 100.74523 | 17 ft | 21 kts | 104° |
| 2026-05-05 04:36 | 13.68551 | 100.74648 | 18 ft | 14 kts | 155° |
| 2026-05-05 04:36 | 13.68486 | 100.74618 | 18 ft | 9 kts | 255° |
| 2026-05-05 04:37 | 13.68494 | 100.74547 | 18 ft | 14 kts | 284° |
| 2026-05-05 04:37 | 13.68520 | 100.74442 | 17 ft | 16 kts | 283° |
| 2026-05-05 04:37 | 13.68485 | 100.74397 | 17 ft | 7 kts | 193° |
| 2026-05-05 04:37 | 13.68440 | 100.74385 | 17 ft | 0 kts | 194° |
| 2026-05-05 04:38 | 13.68436 | 100.74384 | 17 ft | 0 kts | 194° |